createdAt,value
2023-03-23T15:58:15.646Z,59.46
2023-03-23T15:59:12.675Z,58.55
2023-03-23T16:00:10.056Z,58.75
2023-03-23T16:01:19.590Z,59.26
2023-03-23T16:02:24.213Z,60.17
2023-03-23T16:03:27.807Z,58.87
2023-03-23T16:04:24.724Z,58.48
2023-03-23T16:05:21.603Z,59.34
2023-03-23T16:06:24.339Z,60.62
2023-03-23T16:07:23.923Z,61.09
2023-03-23T16:08:20.817Z,61.43
2023-03-23T16:09:19.822Z,61.09
2023-03-23T16:10:19.408Z,60.50
2023-03-23T16:11:18.388Z,60.14
2023-03-23T16:12:15.105Z,60.64
2023-03-23T16:13:11.941Z,61.21
2023-03-23T16:14:08.759Z,61.83
2023-03-23T16:15:06.244Z,62.57
2023-03-23T16:16:05.054Z,63.04
2023-03-23T16:17:01.678Z,63.01
2023-03-23T16:17:59.007Z,63.44
2023-03-23T16:18:56.045Z,64.74
2023-03-23T16:19:52.778Z,64.20
2023-03-23T16:20:50.254Z,65.61
2023-03-23T16:21:46.880Z,65.81
2023-03-23T16:22:43.813Z,65.18
2023-03-23T16:23:41.417Z,65.48
2023-03-23T16:24:38.545Z,65.28
2023-03-23T16:25:35.513Z,64.53
2023-03-23T16:26:32.262Z,66.34
2023-03-23T16:27:28.887Z,67.25
2023-03-23T16:28:25.700Z,68.79
2023-03-23T16:29:40.112Z,67.02
2023-03-23T16:30:40.870Z,68.75
2023-03-23T16:31:37.464Z,68.38
2023-03-23T16:33:29.558Z,68.10
2023-03-23T16:34:29.018Z,68.96
2023-03-23T16:35:26.306Z,69.46
2023-03-23T16:36:22.972Z,69.31
2023-03-23T16:37:19.569Z,70.41
2023-03-23T16:38:17.616Z,70.84
2023-03-23T16:39:15.933Z,71.56
2023-03-23T16:40:13.640Z,70.78
2023-03-23T16:41:13.157Z,70.90
2023-03-23T16:42:09.899Z,70.60
2023-03-23T16:43:08.628Z,70.40
2023-03-23T16:44:06.848Z,70.23
2023-03-23T16:45:03.826Z,70.19
2023-03-23T16:46:00.439Z,70.29
2023-03-23T16:46:57.172Z,69.95
2023-03-23T16:47:55.987Z,69.92
2023-03-23T16:48:52.634Z,70.48
2023-03-23T16:49:51.066Z,69.84
2023-03-23T16:50:47.681Z,70.25
2023-03-23T16:51:44.303Z,69.82
2023-03-23T16:52:46.527Z,69.76
2023-03-23T16:53:43.365Z,69.58
2023-03-23T16:54:39.983Z,69.71
2023-03-23T16:55:39.534Z,69.67
2023-03-23T16:56:36.236Z,69.40
2023-03-23T16:57:35.903Z,69.38
2023-03-23T16:58:32.612Z,69.59
2023-03-23T16:59:29.366Z,69.29
2023-03-23T17:00:27.260Z,69.33
2023-03-23T17:01:24.067Z,68.87
2023-03-23T17:02:20.782Z,68.79
2023-03-23T17:03:19.405Z,68.82
2023-03-23T17:04:16.181Z,68.94
2023-03-23T17:05:14.536Z,69.73
2023-03-23T17:06:11.299Z,69.15
2023-03-23T17:07:07.963Z,69.35
2023-03-23T17:08:05.929Z,68.91
2023-03-23T17:09:02.542Z,69.84
2023-03-23T17:10:00.527Z,69.37
2023-03-23T17:10:57.394Z,69.52
2023-03-23T17:11:54.821Z,69.44
2023-03-23T17:12:51.404Z,69.86
2023-03-23T17:13:48.495Z,69.37
2023-03-23T17:14:45.292Z,68.98
2023-03-23T17:15:46.018Z,69.14
2023-03-23T17:16:43.685Z,69.75
2023-03-23T17:17:40.409Z,70.44
2023-03-23T17:18:37.100Z,70.20
2023-03-23T17:19:34.252Z,70.09
2023-03-23T17:20:31.536Z,69.92
2023-03-23T17:21:28.135Z,69.99
2023-03-23T17:22:25.759Z,69.93
2023-03-23T17:23:22.908Z,69.93
2023-03-23T17:24:20.505Z,70.23
2023-03-23T17:25:17.189Z,70.27
2023-03-23T17:26:13.817Z,69.95
2023-03-23T17:27:11.463Z,71.23
2023-03-23T17:28:08.072Z,70.85
2023-03-23T17:29:05.399Z,70.78
2023-03-23T17:30:03.957Z,70.57
2023-03-23T17:31:00.578Z,71.23
2023-03-23T17:31:57.237Z,71.01
2023-03-23T17:32:54.718Z,70.79
2023-03-23T17:33:52.792Z,70.90
2023-03-23T17:34:49.588Z,70.99
2023-03-23T17:35:47.636Z,70.90
2023-03-23T17:36:44.676Z,71.55
2023-03-23T17:37:41.686Z,71.35
2023-03-23T17:38:38.345Z,71.85
2023-03-23T17:39:43.292Z,71.57
2023-03-23T17:40:40.696Z,72.05
2023-03-23T17:41:37.377Z,71.82
2023-03-23T17:42:34.356Z,72.15
2023-03-23T17:43:31.635Z,71.65
2023-03-23T17:44:28.410Z,70.99
2023-03-23T17:45:25.078Z,71.77
2023-03-23T17:46:21.823Z,71.37
2023-03-23T17:47:18.666Z,71.46
2023-03-23T17:48:15.328Z,71.38
2023-03-23T17:49:12.080Z,71.22
2023-03-23T17:50:11.813Z,71.59
2023-03-23T17:51:09.288Z,71.13
2023-03-23T17:52:05.943Z,71.20
2023-03-23T17:53:03.215Z,71.12
2023-03-23T17:53:59.807Z,71.46
2023-03-23T17:54:56.382Z,71.06
2023-03-23T17:55:53.545Z,71.46
2023-03-23T17:56:50.286Z,71.58
2023-03-23T17:57:47.179Z,71.30
2023-03-23T17:58:43.792Z,71.71
2023-03-23T17:59:40.500Z,71.34
2023-03-23T18:00:37.717Z,71.16
2023-03-23T18:01:34.580Z,71.45
2023-03-23T18:02:31.295Z,71.04
2023-03-23T18:03:28.088Z,71.28
2023-03-23T18:04:27.029Z,70.81
2023-03-23T18:05:24.644Z,71.29
2023-03-23T18:06:21.385Z,71.31
2023-03-23T18:07:23.411Z,71.21
2023-03-23T18:08:20.042Z,71.13
2023-03-23T18:09:16.636Z,71.23
2023-03-23T18:10:13.402Z,72.17
2023-03-23T18:11:12.924Z,72.23
2023-03-23T18:12:09.573Z,72.23
2023-03-23T18:13:07.873Z,72.08
2023-03-23T18:14:04.632Z,72.11
2023-03-23T18:15:01.287Z,72.05
2023-03-23T18:15:58.227Z,72.36
2023-03-23T18:16:55.476Z,72.53
2023-03-23T18:17:52.330Z,72.22
2023-03-23T18:18:49.306Z,72.34
2023-03-23T18:19:46.714Z,72.62
2023-03-23T18:20:43.408Z,72.65
2023-03-23T18:21:40.113Z,72.76
2023-03-23T18:22:37.121Z,72.82
2023-03-23T18:23:39.101Z,73.31
2023-03-23T18:24:39.984Z,73.81
2023-03-23T18:25:37.923Z,73.79
2023-03-23T18:26:34.931Z,74.62
2023-03-23T18:27:32.362Z,74.26
2023-03-23T18:28:29.272Z,73.23
2023-03-23T18:29:25.939Z,72.91
2023-03-23T18:30:23.924Z,72.29
2023-03-23T18:31:21.295Z,72.28
2023-03-23T18:32:19.790Z,71.96
2023-03-23T18:33:19.063Z,72.32
2023-03-23T18:34:17.204Z,72.01
2023-03-23T18:35:14.098Z,71.90
2023-03-23T18:36:11.236Z,71.55
2023-03-23T18:37:08.268Z,71.89
2023-03-23T18:38:04.908Z,72.13
2023-03-23T18:39:01.832Z,72.03
2023-03-23T18:39:58.752Z,72.47
2023-03-23T18:40:55.682Z,72.45
2023-03-23T18:41:52.326Z,72.63
2023-03-23T18:42:49.256Z,72.87
2023-03-23T18:43:46.626Z,73.22
2023-03-23T18:44:43.215Z,73.67
2023-03-23T18:45:40.333Z,73.83
2023-03-23T18:46:37.454Z,73.90
2023-03-23T18:47:34.267Z,74.38
2023-03-23T18:48:31.250Z,74.30
2023-03-23T18:49:29.080Z,74.59
2023-03-23T18:50:25.981Z,74.73
2023-03-23T18:51:22.954Z,74.96
2023-03-23T18:52:19.582Z,75.37
2023-03-23T18:53:16.669Z,75.28
2023-03-23T18:54:13.534Z,74.95
2023-03-23T18:55:10.577Z,74.72
2023-03-23T18:56:13.291Z,74.72
2023-03-23T18:57:12.118Z,74.67
2023-03-23T18:58:08.905Z,74.00
2023-03-23T18:59:06.487Z,74.03
2023-03-23T19:00:04.726Z,73.73
2023-03-23T19:01:07.221Z,74.04
2023-03-23T19:02:04.534Z,73.70
2023-03-23T19:03:01.475Z,73.18
2023-03-23T19:03:58.233Z,73.22
2023-03-23T19:04:54.921Z,72.65
2023-03-23T19:05:51.493Z,72.31
2023-03-23T19:06:49.610Z,72.36
2023-03-23T19:07:46.390Z,72.56
2023-03-23T19:08:43.374Z,71.73
2023-03-23T19:09:43.773Z,71.62
2023-03-23T19:10:42.649Z,72.85
2023-03-23T19:11:39.313Z,74.92
2023-03-23T19:12:36.133Z,76.03
2023-03-23T19:13:37.543Z,76.79
2023-03-23T19:14:36.591Z,77.01
2023-03-23T19:15:33.286Z,77.52
2023-03-23T19:16:32.900Z,77.80
2023-03-23T19:17:29.709Z,78.13
2023-03-23T19:18:26.380Z,78.76
2023-03-23T19:19:24.909Z,78.86
2023-03-23T19:20:57.335Z,79.13
2023-03-23T19:21:47.035Z,79.19
2023-03-23T19:22:43.952Z,78.66
2023-03-23T19:23:41.561Z,77.73
2023-03-23T19:24:38.543Z,77.53
2023-03-23T19:25:35.181Z,77.68
2023-03-23T19:26:37.672Z,78.14
2023-03-23T19:29:15.443Z,79.19
2023-03-23T19:29:50.729Z,79.77
2023-03-23T19:30:52.521Z,79.82
2023-03-23T19:31:49.460Z,80.00
2023-03-23T19:32:46.124Z,79.49
2023-03-23T19:33:43.716Z,79.03
2023-03-23T19:34:40.872Z,79.66
2023-03-23T19:35:37.662Z,78.47
2023-03-23T19:36:35.646Z,78.94
2023-03-23T19:37:34.730Z,78.26
2023-03-23T19:38:31.765Z,78.34
2023-03-23T19:39:28.386Z,77.93
2023-03-23T19:40:39.564Z,76.88
2023-03-23T19:41:37.611Z,75.92
2023-03-23T19:42:34.594Z,76.01
2023-03-23T19:43:31.341Z,75.82
2023-03-23T19:44:28.847Z,74.86
2023-03-23T19:45:25.855Z,75.17
2023-03-23T19:46:22.668Z,75.36
2023-03-23T19:47:19.313Z,75.44
2023-03-23T19:48:17.440Z,74.93
2023-03-23T19:49:14.757Z,74.79
2023-03-23T19:50:11.525Z,74.73
2023-03-23T19:51:09.776Z,74.63
2023-03-23T19:52:12.717Z,74.17
2023-03-23T19:53:10.706Z,74.30
2023-03-23T19:54:07.998Z,74.48
2023-03-23T19:55:04.989Z,74.53
2023-03-23T19:56:03.589Z,74.69
2023-03-23T19:57:01.254Z,74.28
2023-03-23T19:57:57.924Z,73.80
2023-03-23T19:58:54.753Z,73.74
2023-03-23T19:59:51.716Z,73.24
2023-03-23T20:00:48.855Z,73.25
2023-03-23T20:01:45.518Z,73.61
2023-03-23T20:02:42.391Z,73.03
2023-03-23T20:03:39.647Z,74.04
2023-03-23T20:04:36.484Z,74.78
2023-03-23T20:05:35.172Z,75.23
2023-03-23T20:06:31.930Z,74.70
2023-03-23T20:07:28.699Z,75.45
2023-03-23T20:08:25.978Z,75.56
2023-03-23T20:09:22.706Z,75.35
2023-03-23T20:10:19.437Z,75.55
2023-03-23T20:11:18.652Z,75.86
2023-03-23T20:12:16.168Z,76.34
2023-03-23T20:13:13.821Z,76.53
2023-03-23T20:14:11.865Z,76.44
2023-03-23T20:15:08.842Z,76.79
2023-03-23T20:16:06.881Z,76.59
2023-03-23T20:17:05.693Z,76.51
2023-03-23T20:18:02.777Z,76.75
2023-03-23T20:19:00.340Z,76.80
2023-03-23T20:19:57.419Z,76.80
2023-03-23T20:21:04.777Z,76.63
2023-03-23T20:22:02.389Z,76.33
2023-03-23T20:22:59.183Z,76.20
2023-03-23T20:23:58.511Z,76.23
2023-03-23T20:24:55.287Z,76.37
2023-03-23T20:25:52.191Z,76.54
2023-03-23T20:26:48.984Z,76.71
2023-03-23T20:27:46.551Z,77.01
2023-03-23T20:28:43.744Z,77.64
2023-03-23T20:29:40.682Z,77.61
2023-03-23T20:30:38.248Z,77.84
2023-03-23T20:31:38.412Z,77.98
2023-03-23T20:32:37.360Z,78.17
2023-03-23T20:33:35.519Z,78.01
2023-03-23T20:34:32.167Z,77.65
2023-03-23T20:35:29.521Z,77.84
2023-03-23T20:36:29.725Z,77.93
2023-03-23T20:37:27.100Z,78.06
2023-03-23T20:38:27.435Z,78.05
2023-03-23T20:39:25.498Z,78.27
2023-03-23T20:40:22.221Z,78.20
2023-03-23T20:41:20.766Z,78.77
2023-03-23T20:42:17.597Z,79.25
2023-03-23T20:43:14.282Z,78.52
2023-03-23T20:44:16.075Z,78.66
2023-03-23T20:45:13.401Z,78.94
2023-03-23T20:46:12.522Z,78.68
2023-03-23T20:47:09.645Z,78.88
2023-03-23T20:48:06.373Z,79.10
2023-03-23T20:49:05.385Z,78.94
2023-03-23T20:50:02.178Z,79.01
2023-03-23T20:51:00.497Z,78.57
2023-03-23T20:51:57.368Z,78.24
2023-03-23T20:52:54.561Z,78.36
2023-03-23T20:53:51.734Z,78.69
2023-03-23T20:54:50.805Z,79.09
2023-03-23T20:55:47.560Z,79.54
2023-03-23T20:56:45.968Z,79.81
2023-03-23T20:57:43.336Z,80.03
2023-03-23T20:58:40.968Z,80.36
2023-03-23T20:59:37.679Z,80.62
2023-03-23T21:00:34.354Z,80.57
2023-03-23T21:01:33.230Z,80.39
2023-03-23T21:02:30.190Z,80.76
2023-03-23T21:03:29.249Z,80.52
2023-03-23T21:04:27.519Z,81.29
2023-03-23T21:05:24.790Z,82.01
2023-03-23T21:06:21.708Z,82.53
2023-03-23T21:07:19.108Z,83.09
2023-03-23T21:08:18.266Z,82.71
2023-03-23T21:09:17.422Z,82.51
2023-03-23T21:10:14.287Z,83.03
2023-03-23T21:11:18.293Z,82.70
2023-03-23T21:12:14.965Z,82.73
2023-03-23T21:13:14.674Z,83.23
2023-03-23T21:14:11.918Z,83.13
2023-03-23T21:15:08.585Z,82.78
2023-03-23T21:16:06.021Z,83.21
2023-03-23T21:17:03.899Z,83.27
2023-03-23T21:18:01.071Z,82.84
2023-03-23T21:18:57.683Z,82.37
2023-03-23T21:19:54.370Z,82.41
2023-03-23T21:20:51.028Z,82.46
2023-03-23T21:21:56.364Z,82.59
2023-03-23T21:22:53.877Z,82.65
2023-03-23T21:23:53.017Z,82.81
2023-03-23T21:24:52.774Z,83.19
2023-03-23T21:25:49.413Z,83.29
2023-03-23T21:26:46.039Z,83.36
2023-03-23T21:27:42.746Z,83.27
2023-03-23T21:28:39.382Z,82.87
2023-03-23T21:29:36.086Z,82.94
2023-03-23T21:30:33.048Z,83.22
2023-03-23T21:31:33.055Z,83.54
2023-03-23T21:32:29.887Z,83.93
2023-03-23T21:33:26.648Z,84.09
2023-03-23T21:34:23.422Z,83.82
2023-03-23T21:35:20.378Z,83.92
2023-03-23T21:36:17.055Z,83.98
2023-03-23T21:37:15.169Z,84.30
2023-03-23T21:38:14.431Z,83.81
2023-03-23T21:39:11.176Z,83.70
2023-03-23T21:40:13.601Z,83.77
2023-03-23T21:41:12.564Z,83.93
2023-03-23T21:42:09.236Z,83.99
2023-03-23T21:43:05.880Z,84.43
2023-03-23T21:44:10.246Z,84.55
2023-03-23T21:45:07.886Z,84.82
2023-03-23T21:46:06.064Z,84.95
2023-03-23T21:47:03.225Z,84.89
2023-03-23T21:48:00.261Z,85.11
2023-03-23T21:48:58.848Z,85.09
2023-03-23T21:49:56.653Z,84.55
2023-03-23T21:50:54.019Z,84.98
2023-03-23T21:51:50.912Z,85.03
2023-03-23T21:52:51.007Z,85.13
2023-03-23T21:53:47.921Z,84.98
2023-03-23T21:54:45.690Z,84.85
2023-03-23T21:55:43.615Z,84.95
2023-03-23T21:56:40.301Z,85.25
2023-03-23T21:57:37.246Z,85.31
2023-03-23T21:58:34.583Z,85.31
2023-03-23T21:59:31.244Z,84.91
2023-03-23T22:00:29.748Z,84.51
2023-03-23T22:01:28.233Z,84.31
2023-03-23T22:02:24.983Z,84.77
2023-03-23T22:03:23.625Z,84.93
2023-03-23T22:04:21.047Z,84.96
2023-03-23T22:05:18.009Z,85.05
2023-03-23T22:06:21.037Z,84.96
2023-03-23T22:07:18.108Z,84.77
2023-03-23T22:08:14.709Z,84.18
2023-03-23T22:09:11.788Z,84.39
2023-03-23T22:10:10.327Z,84.39
2023-03-23T22:11:11.789Z,84.40
2023-03-23T22:12:09.365Z,84.53
2023-03-23T22:13:06.591Z,84.31
2023-03-23T22:14:04.282Z,84.31
2023-03-23T22:15:01.103Z,84.24
2023-03-23T22:16:02.574Z,84.58
2023-03-23T22:17:00.527Z,84.44
2023-03-23T22:17:57.200Z,84.45
2023-03-23T22:18:55.453Z,84.69
2023-03-23T22:19:52.277Z,84.82
2023-03-23T22:20:49.273Z,84.46
2023-03-23T22:21:46.572Z,84.57
2023-03-23T22:22:43.169Z,84.38
2023-03-23T22:23:40.837Z,84.24
2023-03-23T22:24:37.464Z,84.38
2023-03-23T22:25:36.208Z,84.69
2023-03-23T22:26:33.294Z,84.73
2023-03-23T22:27:29.926Z,84.79
2023-03-23T22:28:28.570Z,84.70
2023-03-23T22:29:25.524Z,84.96
2023-03-23T22:30:22.563Z,85.00
2023-03-23T22:31:26.492Z,85.06
2023-03-23T22:32:23.454Z,85.38
2023-03-23T22:33:20.233Z,85.41
2023-03-23T22:34:17.228Z,85.49
2023-03-23T22:35:14.052Z,85.27
2023-03-23T22:36:11.259Z,85.15
2023-03-23T22:37:08.362Z,85.17
2023-03-23T22:38:05.143Z,85.37
2023-03-23T22:39:02.455Z,85.44
2023-03-23T22:39:59.416Z,85.23
2023-03-23T22:41:01.221Z,85.60
2023-03-23T22:41:58.091Z,85.70
2023-03-23T22:42:54.848Z,85.93
2023-03-23T22:43:51.586Z,86.07
2023-03-23T22:44:48.244Z,86.47
2023-03-23T22:45:44.956Z,86.44
2023-03-23T22:46:42.240Z,86.76
2023-03-23T22:47:39.178Z,87.04
2023-03-23T22:48:36.181Z,87.17
2023-03-23T22:49:32.863Z,87.45
2023-03-23T22:50:29.618Z,87.62
2023-03-23T22:51:26.389Z,87.61
2023-03-23T22:52:23.010Z,87.87
2023-03-23T22:53:20.938Z,88.20
2023-03-23T22:54:17.600Z,88.32
2023-03-23T22:55:14.306Z,88.42
2023-03-23T22:56:12.027Z,88.57
2023-03-23T22:57:08.803Z,88.63
2023-03-23T22:58:05.654Z,88.86
2023-03-23T22:59:02.663Z,89.01
2023-03-23T22:59:59.476Z,88.95
2023-03-23T23:01:12.525Z,89.06
2023-03-23T23:02:09.112Z,89.27
2023-03-23T23:03:07.570Z,89.21
2023-03-23T23:04:04.427Z,89.57
2023-03-23T23:05:01.082Z,89.46
2023-03-23T23:05:58.980Z,89.72
2023-03-23T23:07:06.459Z,89.56
2023-03-23T23:08:14.147Z,89.63
2023-03-23T23:09:12.051Z,89.68
2023-03-23T23:10:09.589Z,89.84
2023-03-23T23:11:06.928Z,89.87
2023-03-23T23:12:03.689Z,89.89
2023-03-23T23:13:00.612Z,89.84
2023-03-23T23:13:57.305Z,89.95
2023-03-23T23:14:53.962Z,89.87
2023-03-23T23:15:53.106Z,89.83
2023-03-23T23:16:49.731Z,89.74
2023-03-23T23:17:47.111Z,89.84
2023-03-23T23:18:46.542Z,89.97
2023-03-23T23:19:43.488Z,89.95
2023-03-23T23:20:41.089Z,89.96
2023-03-23T23:21:37.710Z,90.34
2023-03-23T23:22:34.408Z,90.40
2023-03-23T23:23:31.736Z,90.41
2023-03-23T23:24:29.471Z,90.93
2023-03-23T23:25:26.226Z,90.80
2023-03-23T23:26:23.315Z,90.95
2023-03-23T23:27:20.030Z,90.96
2023-03-23T23:28:17.544Z,91.28
2023-03-23T23:29:14.098Z,91.13
2023-03-23T23:30:12.576Z,91.61
2023-03-23T23:31:22.657Z,91.34
2023-03-23T23:32:19.451Z,91.00
2023-03-23T23:33:16.160Z,90.69
2023-03-23T23:34:13.908Z,90.11
2023-03-23T23:35:12.840Z,90.08
2023-03-23T23:36:12.204Z,90.18
2023-03-23T23:37:09.116Z,90.16
2023-03-23T23:38:07.373Z,90.39
2023-03-23T23:39:06.735Z,90.48
2023-03-23T23:40:07.726Z,90.74
2023-03-23T23:41:04.596Z,91.28
2023-03-23T23:42:01.638Z,91.49
2023-03-23T23:42:58.854Z,91.63
2023-03-23T23:43:55.627Z,91.17
2023-03-23T23:44:52.324Z,90.67
2023-03-23T23:45:48.956Z,90.20
2023-03-23T23:46:46.204Z,90.38
2023-03-23T23:47:43.331Z,91.19
2023-03-23T23:48:40.691Z,91.92
2023-03-23T23:49:37.666Z,92.81
2023-03-23T23:50:35.039Z,93.25
2023-03-23T23:51:34.200Z,93.39
2023-03-23T23:52:30.997Z,93.76
2023-03-23T23:53:27.816Z,93.64
2023-03-23T23:54:29.935Z,93.76
2023-03-23T23:55:27.782Z,93.63
2023-03-23T23:56:25.324Z,94.10
2023-03-23T23:57:22.188Z,93.90
2023-03-23T23:58:22.164Z,94.09
2023-03-23T23:59:18.801Z,94.49
